DAOB/TID METAR and TAF weather

Enter ICAO airport designator
Station Type Date Time Source
DAOB METAR 2020/07/12 06:00 UTC NOAA

DAOB 120600Z 33004KT 9999 FEW026 22/08 Q1021


Station Type Date Time Source
DAOB Decoded METAR 2020/07/12 06:00 UTC NOAA

Tiaret, Algeria (DAOB) 35-15N 001-26E 1127M
Jul 12, 2020 - 02:00 AM EDT / 2020.07.12 0600 UTC
Wind: from the NNW (330 degrees) at 5 MPH (4 KT):0
Visibility: greater than 7 mile(s):0
Sky conditions: mostly clear
Temperature: 71 F (22 C)
Dew Point: 46 F (8 C)
Relative Humidity: 40%
Pressure (altimeter): 30.15 in. Hg (1021 hPa)
ob: DAOB 120600Z 33004KT 9999 FEW026 22/08 Q1021
cycle: 6

Station Type Date Time Source
DAOB TAF 2020/07/12 06:33 UTC NOAA

TAF TAF DAOB 120500Z 1206/1306 VRB02KT 9999 FEW026
BECMG 1207/1210 22012KT
BECMG 1212/1215 32015KT PROB40
TEMPO 1214/1220 FEW030CB
BECMG 1220/1223 VRB02KT

Example: see airport list